sensor_id;sensor_type;location;lat;lon;timestamp;pressure;altitude;pressure_sealevel;temperature;humidity
55171;BME280;41060;47.510;8.680;2023-04-29T00:00:12;96887.44;;;17.84;55.85
55171;BME280;41060;47.510;8.680;2023-04-29T00:02:39;96881.59;;;17.73;55.99
55171;BME280;41060;47.510;8.680;2023-04-29T00:05:07;96882.66;;;17.55;56.75
55171;BME280;41060;47.510;8.680;2023-04-29T00:07:33;96870.19;;;17.79;55.97
55171;BME280;41060;47.510;8.680;2023-04-29T00:10:01;96880.56;;;17.90;55.54
55171;BME280;41060;47.510;8.680;2023-04-29T00:12:27;96864.97;;;17.93;55.54
55171;BME280;41060;47.510;8.680;2023-04-29T00:14:57;96865.16;;;17.92;55.17
55171;BME280;41060;47.510;8.680;2023-04-29T00:17:24;96867.03;;;17.75;55.65
55171;BME280;41060;47.510;8.680;2023-04-29T00:19:51;96870.66;;;17.82;55.31
55171;BME280;41060;47.510;8.680;2023-04-29T00:22:17;96862.81;;;17.81;55.54
55171;BME280;41060;47.510;8.680;2023-04-29T00:24:45;96859.97;;;17.90;55.06
55171;BME280;41060;47.510;8.680;2023-04-29T00:27:12;96859.25;;;17.96;54.83
55171;BME280;41060;47.510;8.680;2023-04-29T00:29:38;96855.06;;;18.02;54.78
55171;BME280;41060;47.510;8.680;2023-04-29T00:32:07;96862.94;;;17.95;55.07
55171;BME280;41060;47.510;8.680;2023-04-29T00:34:33;96865.41;;;17.58;56.08
55171;BME280;41060;47.510;8.680;2023-04-29T00:36:59;96858.03;;;17.52;56.13
55171;BME280;41060;47.510;8.680;2023-04-29T00:39:27;96855.38;;;17.52;56.07
55171;BME280;41060;47.510;8.680;2023-04-29T00:41:53;96863.38;;;17.60;56.11
55171;BME280;41060;47.510;8.680;2023-04-29T00:44:20;96864.41;;;17.51;56.50
55171;BME280;41060;47.510;8.680;2023-04-29T00:46:47;96859.44;;;17.32;56.60
55171;BME280;41060;47.510;8.680;2023-04-29T00:49:24;96871.28;;;17.45;56.40
55171;BME280;41060;47.510;8.680;2023-04-29T00:51:52;96881.50;;;16.93;58.15
55171;BME280;41060;47.510;8.680;2023-04-29T00:54:19;96883.72;;;16.98;58.06
55171;BME280;41060;47.510;8.680;2023-04-29T00:56:49;96878.03;;;17.09;57.96
55171;BME280;41060;47.510;8.680;2023-04-29T00:59:17;96864.47;;;17.35;57.24
55171;BME280;41060;47.510;8.680;2023-04-29T01:01:44;96860.56;;;17.45;56.88
55171;BME280;41060;47.510;8.680;2023-04-29T01:04:11;96860.25;;;17.48;57.03
55171;BME280;41060;47.510;8.680;2023-04-29T01:06:50;96849.34;;;17.58;56.14
55171;BME280;41060;47.510;8.680;2023-04-29T01:09:31;96858.69;;;17.70;56.37
55171;BME280;41060;47.510;8.680;2023-04-29T01:12:09;96855.03;;;17.63;56.84
55171;BME280;41060;47.510;8.680;2023-04-29T01:14:38;96857.03;;;17.53;57.02
55171;BME280;41060;47.510;8.680;2023-04-29T01:17:09;96860.91;;;17.50;56.98
55171;BME280;41060;47.510;8.680;2023-04-29T01:19:43;96854.84;;;17.64;56.70
55171;BME280;41060;47.510;8.680;2023-04-29T01:22:13;96859.00;;;17.67;56.87
55171;BME280;41060;47.510;8.680;2023-04-29T01:24:43;96852.75;;;17.83;56.22
55171;BME280;41060;47.510;8.680;2023-04-29T01:27:15;96853.06;;;17.96;55.68
55171;BME280;41060;47.510;8.680;2023-04-29T01:29:50;96854.72;;;18.05;55.19
55171;BME280;41060;47.510;8.680;2023-04-29T01:32:26;96858.88;;;18.08;55.24
55171;BME280;41060;47.510;8.680;2023-04-29T01:35:01;96838.53;;;17.82;56.08
55171;BME280;41060;47.510;8.680;2023-04-29T01:37:34;96867.75;;;17.53;56.87
55171;BME280;41060;47.510;8.680;2023-04-29T01:40:08;96862.25;;;17.46;57.23
55171;BME280;41060;47.510;8.680;2023-04-29T01:42:41;96862.75;;;17.50;57.17
55171;BME280;41060;47.510;8.680;2023-04-29T01:45:14;96862.56;;;17.51;56.96
55171;BME280;41060;47.510;8.680;2023-04-29T01:47:41;96872.75;;;17.64;56.81
55171;BME280;41060;47.510;8.680;2023-04-29T01:50:09;96869.44;;;17.54;57.18
55171;BME280;41060;47.510;8.680;2023-04-29T01:52:36;96865.75;;;17.55;57.04
55171;BME280;41060;47.510;8.680;2023-04-29T01:55:05;96867.72;;;17.61;57.04
55171;BME280;41060;47.510;8.680;2023-04-29T01:57:32;96868.44;;;17.55;57.31
55171;BME280;41060;47.510;8.680;2023-04-29T01:59:59;96863.84;;;17.80;56.30
55171;BME280;41060;47.510;8.680;2023-04-29T02:02:26;96858.97;;;17.91;56.14
55171;BME280;41060;47.510;8.680;2023-04-29T02:04:53;96856.91;;;18.01;55.54
55171;BME280;41060;47.510;8.680;2023-04-29T02:07:20;96868.66;;;17.92;56.02
55171;BME280;41060;47.510;8.680;2023-04-29T02:09:47;96867.69;;;17.85;56.16
55171;BME280;41060;47.510;8.680;2023-04-29T02:12:15;96861.31;;;17.78;56.60
55171;BME280;41060;47.510;8.680;2023-04-29T02:14:42;96865.31;;;17.90;55.99
55171;BME280;41060;47.510;8.680;2023-04-29T02:17:09;96873.03;;;17.77;56.30
55171;BME280;41060;47.510;8.680;2023-04-29T02:19:35;96861.50;;;17.77;56.54
55171;BME280;41060;47.510;8.680;2023-04-29T02:22:02;96867.72;;;17.61;56.96
55171;BME280;41060;47.510;8.680;2023-04-29T02:24:29;96852.47;;;17.78;56.32
55171;BME280;41060;47.510;8.680;2023-04-29T02:26:55;96858.53;;;17.63;56.72
55171;BME280;41060;47.510;8.680;2023-04-29T02:29:25;96849.03;;;17.45;57.32
55171;BME280;41060;47.510;8.680;2023-04-29T02:31:53;96854.91;;;17.48;57.35
55171;BME280;41060;47.510;8.680;2023-04-29T02:34:20;96847.28;;;17.68;56.57
55171;BME280;41060;47.510;8.680;2023-04-29T02:36:48;96846.28;;;17.85;55.88
55171;BME280;41060;47.510;8.680;2023-04-29T02:39:15;96845.03;;;17.96;55.54
55171;BME280;41060;47.510;8.680;2023-04-29T02:41:42;96837.41;;;17.85;56.00
55171;BME280;41060;47.510;8.680;2023-04-29T02:44:11;96855.91;;;18.02;55.18
55171;BME280;41060;47.510;8.680;2023-04-29T02:46:39;96853.09;;;17.88;55.93
55171;BME280;41060;47.510;8.680;2023-04-29T02:49:11;96852.47;;;17.70;56.72
55171;BME280;41060;47.510;8.680;2023-04-29T02:51:38;96861.22;;;17.55;57.23
55171;BME280;41060;47.510;8.680;2023-04-29T02:54:05;96862.22;;;17.62;56.67
55171;BME280;41060;47.510;8.680;2023-04-29T02:56:33;96853.28;;;17.78;55.87
55171;BME280;41060;47.510;8.680;2023-04-29T02:58:59;96857.66;;;17.87;55.64
55171;BME280;41060;47.510;8.680;2023-04-29T03:01:26;96865.81;;;17.94;55.25
55171;BME280;41060;47.510;8.680;2023-04-29T03:03:55;96864.28;;;17.99;55.36
55171;BME280;41060;47.510;8.680;2023-04-29T03:06:22;96870.84;;;17.89;55.86
55171;BME280;41060;47.510;8.680;2023-04-29T03:08:49;96862.63;;;17.90;55.50
55171;BME280;41060;47.510;8.680;2023-04-29T03:11:19;96861.59;;;17.99;55.27
55171;BME280;41060;47.510;8.680;2023-04-29T03:13:46;96856.53;;;18.04;55.13
55171;BME280;41060;47.510;8.680;2023-04-29T03:16:12;96859.91;;;18.07;55.14
55171;BME280;41060;47.510;8.680;2023-04-29T03:18:41;96858.09;;;17.99;55.87
55171;BME280;41060;47.510;8.680;2023-04-29T03:21:09;96862.59;;;17.98;55.53
55171;BME280;41060;47.510;8.680;2023-04-29T03:23:36;96854.53;;;18.07;55.03
55171;BME280;41060;47.510;8.680;2023-04-29T03:26:05;96852.53;;;18.09;54.96
55171;BME280;41060;47.510;8.680;2023-04-29T03:28:31;96851.31;;;18.11;54.92
55171;BME280;41060;47.510;8.680;2023-04-29T03:30:57;96855.66;;;18.12;54.92
55171;BME280;41060;47.510;8.680;2023-04-29T03:33:25;96851.31;;;18.11;54.78
55171;BME280;41060;47.510;8.680;2023-04-29T03:35:51;96846.19;;;18.01;55.26
55171;BME280;41060;47.510;8.680;2023-04-29T03:38:19;96859.97;;;17.82;55.90
55171;BME280;41060;47.510;8.680;2023-04-29T03:40:46;96848.78;;;17.79;55.58
55171;BME280;41060;47.510;8.680;2023-04-29T03:43:13;96833.72;;;17.78;55.34
55171;BME280;41060;47.510;8.680;2023-04-29T03:45:40;96841.75;;;17.78;55.74
55171;BME280;41060;47.510;8.680;2023-04-29T03:48:07;96838.56;;;17.74;55.63
55171;BME280;41060;47.510;8.680;2023-04-29T03:50:34;96843.31;;;17.64;55.67
55171;BME280;41060;47.510;8.680;2023-04-29T03:53:01;96829.59;;;17.59;55.21
55171;BME280;41060;47.510;8.680;2023-04-29T03:55:29;96794.00;;;17.50;54.69
55171;BME280;41060;47.510;8.680;2023-04-29T03:57:56;96832.03;;;17.77;54.72
55171;BME280;41060;47.510;8.680;2023-04-29T04:00:22;96835.84;;;17.82;54.54
55171;BME280;41060;47.510;8.680;2023-04-29T04:02:51;96831.72;;;17.80;54.54
55171;BME280;41060;47.510;8.680;2023-04-29T04:05:17;96821.56;;;17.51;54.97
55171;BME280;41060;47.510;8.680;2023-04-29T04:07:45;96838.84;;;17.48;55.38
55171;BME280;41060;47.510;8.680;2023-04-29T04:10:12;96843.69;;;17.45;55.14
55171;BME280;41060;47.510;8.680;2023-04-29T04:12:43;96842.69;;;17.46;54.86
55171;BME280;41060;47.510;8.680;2023-04-29T04:15:10;96845.41;;;17.21;55.62
55171;BME280;41060;47.510;8.680;2023-04-29T04:17:37;96840.09;;;17.05;55.99
55171;BME280;41060;47.510;8.680;2023-04-29T04:20:04;96837.38;;;17.21;55.47
55171;BME280;41060;47.510;8.680;2023-04-29T04:22:32;96847.28;;;17.13;55.63
55171;BME280;41060;47.510;8.680;2023-04-29T04:24:59;96853.78;;;17.02;55.90
55171;BME280;41060;47.510;8.680;2023-04-29T04:27:26;96855.31;;;17.05;55.68
55171;BME280;41060;47.510;8.680;2023-04-29T04:29:56;96858.66;;;16.99;55.71
55171;BME280;41060;47.510;8.680;2023-04-29T04:32:23;96860.81;;;17.03;55.66
55171;BME280;41060;47.510;8.680;2023-04-29T04:34:50;96869.53;;;17.05;55.29
55171;BME280;41060;47.510;8.680;2023-04-29T04:37:16;96879.84;;;17.16;55.28
55171;BME280;41060;47.510;8.680;2023-04-29T04:39:44;96876.19;;;17.25;54.78
55171;BME280;41060;47.510;8.680;2023-04-29T04:42:10;96889.25;;;17.12;55.58
55171;BME280;41060;47.510;8.680;2023-04-29T04:44:37;96879.69;;;17.26;55.11
55171;BME280;41060;47.510;8.680;2023-04-29T04:47:05;96884.03;;;17.35;54.71
55171;BME280;41060;47.510;8.680;2023-04-29T04:49:31;96880.66;;;17.41;54.40
55171;BME280;41060;47.510;8.680;2023-04-29T04:51:58;96888.69;;;17.49;54.10
55171;BME280;41060;47.510;8.680;2023-04-29T04:54:25;96898.34;;;17.58;53.52
55171;BME280;41060;47.510;8.680;2023-04-29T04:56:52;96893.88;;;17.43;54.46
55171;BME280;41060;47.510;8.680;2023-04-29T04:59:23;96884.19;;;17.42;54.03
55171;BME280;41060;47.510;8.680;2023-04-29T05:01:50;96897.19;;;17.53;53.73
55171;BME280;41060;47.510;8.680;2023-04-29T05:04:18;96884.81;;;17.52;53.67
55171;BME280;41060;47.510;8.680;2023-04-29T05:06:44;96898.34;;;17.58;53.69
55171;BME280;41060;47.510;8.680;2023-04-29T05:09:13;96890.50;;;17.57;53.74
55171;BME280;41060;47.510;8.680;2023-04-29T05:11:40;96893.47;;;17.70;53.49
55171;BME280;41060;47.510;8.680;2023-04-29T05:14:08;96898.97;;;17.77;53.33
55171;BME280;41060;47.510;8.680;2023-04-29T05:16:35;96916.22;;;17.74;53.54
55171;BME280;41060;47.510;8.680;2023-04-29T05:19:02;96906.88;;;17.62;54.27
55171;BME280;41060;47.510;8.680;2023-04-29T05:21:30;96909.41;;;17.55;54.65
55171;BME280;41060;47.510;8.680;2023-04-29T05:23:57;96909.41;;;17.55;54.35
55171;BME280;41060;47.510;8.680;2023-04-29T05:26:23;96902.56;;;17.37;54.62
55171;BME280;41060;47.510;8.680;2023-04-29T05:28:50;96905.91;;;17.47;54.64
55171;BME280;41060;47.510;8.680;2023-04-29T05:31:17;96911.28;;;17.39;55.13
55171;BME280;41060;47.510;8.680;2023-04-29T05:33:43;96916.31;;;17.17;55.63
55171;BME280;41060;47.510;8.680;2023-04-29T05:36:10;96918.81;;;17.11;56.83
55171;BME280;41060;47.510;8.680;2023-04-29T05:38:38;96924.34;;;17.25;55.75
55171;BME280;41060;47.510;8.680;2023-04-29T05:41:05;96923.97;;;17.45;55.42
55171;BME280;41060;47.510;8.680;2023-04-29T05:43:31;96929.16;;;17.54;55.07
55171;BME280;41060;47.510;8.680;2023-04-29T05:45:59;96927.84;;;17.50;55.57
55171;BME280;41060;47.510;8.680;2023-04-29T05:48:25;96922.31;;;17.44;55.82
55171;BME280;41060;47.510;8.680;2023-04-29T05:50:56;96930.47;;;17.58;55.21
55171;BME280;41060;47.510;8.680;2023-04-29T05:53:23;96933.78;;;17.77;54.91
55171;BME280;41060;47.510;8.680;2023-04-29T05:55:51;96930.97;;;17.70;54.83
55171;BME280;41060;47.510;8.680;2023-04-29T05:58:17;96936.19;;;17.55;55.44
55171;BME280;41060;47.510;8.680;2023-04-29T06:00:44;96940.34;;;17.66;55.37
55171;BME280;41060;47.510;8.680;2023-04-29T06:03:15;96941.00;;;17.76;54.87
55171;BME280;41060;47.510;8.680;2023-04-29T06:05:42;96935.97;;;17.89;54.96
55171;BME280;41060;47.510;8.680;2023-04-29T06:08:12;96937.09;;;18.03;54.40
55171;BME280;41060;47.510;8.680;2023-04-29T06:10:38;96938.06;;;18.10;54.35
55171;BME280;41060;47.510;8.680;2023-04-29T06:13:06;96940.09;;;18.08;54.33
55171;BME280;41060;47.510;8.680;2023-04-29T06:15:33;96935.22;;;18.12;54.25
55171;BME280;41060;47.510;8.680;2023-04-29T06:18:00;96900.81;;;17.76;54.52
55171;BME280;41060;47.510;8.680;2023-04-29T06:20:26;96938.28;;;18.00;54.64
55171;BME280;41060;47.510;8.680;2023-04-29T06:22:56;96940.97;;;18.00;55.03
55171;BME280;41060;47.510;8.680;2023-04-29T06:25:23;96941.44;;;18.04;54.95
55171;BME280;41060;47.510;8.680;2023-04-29T06:27:49;96940.50;;;18.28;54.26
55171;BME280;41060;47.510;8.680;2023-04-29T06:30:18;96938.09;;;18.41;54.23
55171;BME280;41060;47.510;8.680;2023-04-29T06:32:45;96945.22;;;18.57;54.05
55171;BME280;41060;47.510;8.680;2023-04-29T06:35:11;96945.72;;;18.68;53.10
55171;BME280;41060;47.510;8.680;2023-04-29T06:37:38;96941.31;;;18.75;52.53
55171;BME280;41060;47.510;8.680;2023-04-29T06:40:06;96943.56;;;18.87;52.63
55171;BME280;41060;47.510;8.680;2023-04-29T06:42:32;96946.25;;;18.87;53.00
55171;BME280;41060;47.510;8.680;2023-04-29T06:45:02;96943.84;;;18.92;53.19
55171;BME280;41060;47.510;8.680;2023-04-29T06:47:30;96945.00;;;18.74;53.37
55171;BME280;41060;47.510;8.680;2023-04-29T06:49:57;96949.41;;;18.59;53.85
55171;BME280;41060;47.510;8.680;2023-04-29T06:52:24;96947.81;;;18.42;54.13
55171;BME280;41060;47.510;8.680;2023-04-29T06:54:50;96952.13;;;18.51;54.27
55171;BME280;41060;47.510;8.680;2023-04-29T06:57:17;96949.72;;;18.64;54.09
55171;BME280;41060;47.510;8.680;2023-04-29T06:59:45;96947.94;;;18.49;54.30
55171;BME280;41060;47.510;8.680;2023-04-29T07:02:12;96955.94;;;18.18;55.93
55171;BME280;41060;47.510;8.680;2023-04-29T07:04:40;96956.38;;;17.90;54.90
55171;BME280;41060;47.510;8.680;2023-04-29T07:07:07;96951.13;;;18.13;54.56
55171;BME280;41060;47.510;8.680;2023-04-29T07:09:37;96947.03;;;18.64;53.76
55171;BME280;41060;47.510;8.680;2023-04-29T07:12:04;96952.22;;;18.74;52.92
55171;BME280;41060;47.510;8.680;2023-04-29T07:14:31;96952.88;;;18.76;52.31
55171;BME280;41060;47.510;8.680;2023-04-29T07:16:57;96951.78;;;18.54;53.04
55171;BME280;41060;47.510;8.680;2023-04-29T07:19:24;96953.44;;;18.55;53.10
55171;BME280;41060;47.510;8.680;2023-04-29T07:21:53;96956.91;;;18.72;52.63
55171;BME280;41060;47.510;8.680;2023-04-29T07:24:19;96958.25;;;18.76;51.86
55171;BME280;41060;47.510;8.680;2023-04-29T07:26:47;96949.78;;;19.10;51.44
55171;BME280;41060;47.510;8.680;2023-04-29T07:29:14;96958.47;;;18.89;51.71
55171;BME280;41060;47.510;8.680;2023-04-29T07:31:44;96956.22;;;19.24;50.93
55171;BME280;41060;47.510;8.680;2023-04-29T07:34:10;96960.28;;;19.19;51.24
55171;BME280;41060;47.510;8.680;2023-04-29T07:36:38;96971.25;;;19.33;50.59
55171;BME280;41060;47.510;8.680;2023-04-29T07:39:06;96972.19;;;19.17;50.18
55171;BME280;41060;47.510;8.680;2023-04-29T07:41:32;96968.63;;;19.25;50.00
55171;BME280;41060;47.510;8.680;2023-04-29T07:43:59;96970.63;;;19.45;49.73
55171;BME280;41060;47.510;8.680;2023-04-29T07:46:26;96964.75;;;19.50;50.21
55171;BME280;41060;47.510;8.680;2023-04-29T07:48:52;96965.88;;;19.55;50.24
55171;BME280;41060;47.510;8.680;2023-04-29T07:51:19;96975.56;;;19.79;50.10
55171;BME280;41060;47.510;8.680;2023-04-29T07:53:46;96983.28;;;20.12;49.17
55171;BME280;41060;47.510;8.680;2023-04-29T07:56:14;96977.81;;;20.05;48.89
55171;BME280;41060;47.510;8.680;2023-04-29T07:58:41;96970.00;;;20.10;47.71
55171;BME280;41060;47.510;8.680;2023-04-29T08:01:08;96961.75;;;19.82;48.45
55171;BME280;41060;47.510;8.680;2023-04-29T08:03:36;96968.63;;;19.47;48.24
55171;BME280;41060;47.510;8.680;2023-04-29T08:06:04;96972.69;;;19.43;49.38
55171;BME280;41060;47.510;8.680;2023-04-29T08:08:30;96979.63;;;19.90;48.71
55171;BME280;41060;47.510;8.680;2023-04-29T08:10:57;96974.28;;;20.19;47.81
55171;BME280;41060;47.510;8.680;2023-04-29T08:13:26;96974.56;;;19.95;47.63
55171;BME280;41060;47.510;8.680;2023-04-29T08:15:52;96971.22;;;20.22;47.65
55171;BME280;41060;47.510;8.680;2023-04-29T08:18:19;96976.69;;;20.58;47.50
55171;BME280;41060;47.510;8.680;2023-04-29T08:20:47;96947.06;;;20.37;47.39
55171;BME280;41060;47.510;8.680;2023-04-29T08:23:16;96967.03;;;20.64;46.64
55171;BME280;41060;47.510;8.680;2023-04-29T08:25:43;96977.44;;;20.23;46.81
55171;BME280;41060;47.510;8.680;2023-04-29T08:28:10;96972.06;;;20.08;47.35
55171;BME280;41060;47.510;8.680;2023-04-29T08:30:39;96974.75;;;20.08;46.81
55171;BME280;41060;47.510;8.680;2023-04-29T08:33:06;96977.53;;;20.15;46.32
55171;BME280;41060;47.510;8.680;2023-04-29T08:35:33;96971.03;;;19.80;46.53
55171;BME280;41060;47.510;8.680;2023-04-29T08:38:02;96971.59;;;20.05;46.38
55171;BME280;41060;47.510;8.680;2023-04-29T08:40:33;96966.97;;;20.13;46.01
55171;BME280;41060;47.510;8.680;2023-04-29T08:43:00;96963.84;;;20.24;46.19
55171;BME280;41060;47.510;8.680;2023-04-29T08:45:28;96979.03;;;20.47;45.90
55171;BME280;41060;47.510;8.680;2023-04-29T08:47:57;96977.91;;;20.56;43.86
55171;BME280;41060;47.510;8.680;2023-04-29T08:50:25;96973.69;;;20.32;44.64
55171;BME280;41060;47.510;8.680;2023-04-29T08:52:54;96972.06;;;20.67;44.26
55171;BME280;41060;47.510;8.680;2023-04-29T08:55:20;96962.88;;;20.61;44.39
55171;BME280;41060;47.510;8.680;2023-04-29T08:57:48;96965.56;;;21.12;44.60
55171;BME280;41060;47.510;8.680;2023-04-29T09:00:16;96974.06;;;21.37;43.46
55171;BME280;41060;47.510;8.680;2023-04-29T09:02:47;96968.94;;;21.42;43.23
55171;BME280;41060;47.510;8.680;2023-04-29T09:05:16;96968.22;;;21.55;43.38
55171;BME280;41060;47.510;8.680;2023-04-29T09:07:44;96969.84;;;21.70;42.08
55171;BME280;41060;47.510;8.680;2023-04-29T09:10:11;96963.84;;;21.75;42.10
55171;BME280;41060;47.510;8.680;2023-04-29T09:12:39;96963.28;;;21.58;42.46
55171;BME280;41060;47.510;8.680;2023-04-29T09:15:07;96958.06;;;21.78;43.06
55171;BME280;41060;47.510;8.680;2023-04-29T09:17:41;96956.91;;;21.87;42.17
55171;BME280;41060;47.510;8.680;2023-04-29T09:20:31;96954.25;;;21.94;42.70
55171;BME280;41060;47.510;8.680;2023-04-29T09:23:02;96961.16;;;22.03;42.01
55171;BME280;41060;47.510;8.680;2023-04-29T09:25:31;96957.97;;;21.93;41.97
55171;BME280;41060;47.510;8.680;2023-04-29T09:28:13;96958.38;;;21.19;41.22
55171;BME280;41060;47.510;8.680;2023-04-29T09:30:44;96963.81;;;21.26;41.82
55171;BME280;41060;47.510;8.680;2023-04-29T09:33:11;96961.84;;;21.62;42.07
55171;BME280;41060;47.510;8.680;2023-04-29T09:35:40;96955.31;;;21.99;41.74
55171;BME280;41060;47.510;8.680;2023-04-29T09:38:12;96947.38;;;22.25;40.46
55171;BME280;41060;47.510;8.680;2023-04-29T09:40:40;96954.59;;;22.18;39.87
55171;BME280;41060;47.510;8.680;2023-04-29T09:43:12;96954.59;;;21.84;39.62
55171;BME280;41060;47.510;8.680;2023-04-29T09:45:41;96958.81;;;21.93;41.29
55171;BME280;41060;47.510;8.680;2023-04-29T09:48:08;96950.38;;;22.03;40.86
55171;BME280;41060;47.510;8.680;2023-04-29T09:50:36;96943.66;;;22.26;40.74
55171;BME280;41060;47.510;8.680;2023-04-29T09:53:05;96945.06;;;22.57;40.41
55171;BME280;41060;47.510;8.680;2023-04-29T09:55:33;96940.13;;;22.67;38.03
55171;BME280;41060;47.510;8.680;2023-04-29T09:58:00;96948.78;;;22.15;38.44
55171;BME280;41060;47.510;8.680;2023-04-29T10:00:30;96940.94;;;22.54;37.58
55171;BME280;41060;47.510;8.680;2023-04-29T10:02:58;96913.75;;;22.21;36.59
55171;BME280;41060;47.510;8.680;2023-04-29T10:05:26;96930.03;;;22.89;37.66
55171;BME280;41060;47.510;8.680;2023-04-29T10:07:54;96932.91;;;22.81;36.12
55171;BME280;41060;47.510;8.680;2023-04-29T10:10:23;96921.38;;;22.46;37.78
55171;BME280;41060;47.510;8.680;2023-04-29T10:12:52;96920.81;;;22.70;39.07
55171;BME280;41060;47.510;8.680;2023-04-29T10:15:24;96914.97;;;23.21;37.01
55171;BME280;41060;47.510;8.680;2023-04-29T10:17:54;96917.66;;;23.40;35.81
55171;BME280;41060;47.510;8.680;2023-04-29T10:20:24;96917.47;;;23.62;35.39
55171;BME280;41060;47.510;8.680;2023-04-29T10:22:52;96916.19;;;23.18;36.08
55171;BME280;41060;47.510;8.680;2023-04-29T10:25:23;96905.59;;;22.49;37.21
55171;BME280;41060;47.510;8.680;2023-04-29T10:27:51;96915.38;;;23.11;35.83
55171;BME280;41060;47.510;8.680;2023-04-29T10:30:19;96906.63;;;23.16;35.91
55171;BME280;41060;47.510;8.680;2023-04-29T10:32:47;96910.41;;;23.34;36.58
55171;BME280;41060;47.510;8.680;2023-04-29T10:35:16;96907.59;;;22.88;36.29
55171;BME280;41060;47.510;8.680;2023-04-29T10:37:46;96893.56;;;23.19;34.48
55171;BME280;41060;47.510;8.680;2023-04-29T10:40:15;96889.38;;;23.10;35.30
55171;BME280;41060;47.510;8.680;2023-04-29T10:42:46;96887.53;;;23.24;35.18
55171;BME280;41060;47.510;8.680;2023-04-29T10:45:17;96895.44;;;23.85;34.53
55171;BME280;41060;47.510;8.680;2023-04-29T10:48:12;96870.06;;;23.39;33.46
55171;BME280;41060;47.510;8.680;2023-04-29T10:53:23;96884.19;;;23.15;34.50
55171;BME280;41060;47.510;8.680;2023-04-29T10:55:52;96873.81;;;23.19;32.47
55171;BME280;41060;47.510;8.680;2023-04-29T10:58:38;96879.31;;;22.71;33.95
55171;BME280;41060;47.510;8.680;2023-04-29T11:01:09;96868.81;;;23.22;34.81
55171;BME280;41060;47.510;8.680;2023-04-29T11:03:50;96873.34;;;23.74;33.65
55171;BME280;41060;47.510;8.680;2023-04-29T11:06:24;96865.41;;;24.06;33.82
55171;BME280;41060;47.510;8.680;2023-04-29T11:09:07;96844.06;;;24.42;32.73
55171;BME280;41060;47.510;8.680;2023-04-29T11:11:55;96864.06;;;24.41;33.47
55171;BME280;41060;47.510;8.680;2023-04-29T11:14:25;96860.19;;;24.69;32.66
55171;BME280;41060;47.510;8.680;2023-04-29T11:16:55;96824.94;;;24.75;32.33
55171;BME280;41060;47.510;8.680;2023-04-29T11:19:24;96830.78;;;23.63;31.42
55171;BME280;41060;47.510;8.680;2023-04-29T11:22:06;96837.22;;;24.33;31.47
55171;BME280;41060;47.510;8.680;2023-04-29T11:24:34;96851.88;;;24.64;31.92
55171;BME280;41060;47.510;8.680;2023-04-29T11:27:02;96855.22;;;24.97;30.99
55171;BME280;41060;47.510;8.680;2023-04-29T11:29:31;96865.34;;;25.08;31.52
55171;BME280;41060;47.510;8.680;2023-04-29T11:32:00;96857.78;;;24.85;30.55
55171;BME280;41060;47.510;8.680;2023-04-29T11:34:27;96858.53;;;24.99;30.42
55171;BME280;41060;47.510;8.680;2023-04-29T11:36:53;96852.00;;;25.38;30.91
55171;BME280;41060;47.510;8.680;2023-04-29T11:39:20;96859.75;;;25.35;30.14
55171;BME280;41060;47.510;8.680;2023-04-29T11:41:48;96859.22;;;24.88;30.85
55171;BME280;41060;47.510;8.680;2023-04-29T11:44:20;96824.59;;;24.65;30.32
55171;BME280;41060;47.510;8.680;2023-04-29T11:46:48;96851.88;;;24.95;31.08
55171;BME280;41060;47.510;8.680;2023-04-29T11:49:15;96854.69;;;24.82;30.58
55171;BME280;41060;47.510;8.680;2023-04-29T11:51:43;96855.47;;;25.45;30.67
55171;BME280;41060;47.510;8.680;2023-04-29T11:54:13;96853.72;;;25.01;29.80
55171;BME280;41060;47.510;8.680;2023-04-29T11:56:42;96842.53;;;25.47;30.02
55171;BME280;41060;47.510;8.680;2023-04-29T11:59:08;96837.41;;;25.39;29.11
55171;BME280;41060;47.510;8.680;2023-04-29T12:01:36;96847.34;;;25.45;29.60
55171;BME280;41060;47.510;8.680;2023-04-29T12:04:04;96844.56;;;25.52;28.21
55171;BME280;41060;47.510;8.680;2023-04-29T12:06:31;96850.50;;;25.67;30.09
55171;BME280;41060;47.510;8.680;2023-04-29T12:08:58;96838.31;;;26.13;29.23
55171;BME280;41060;47.510;8.680;2023-04-29T12:11:26;96849.13;;;25.58;29.06
55171;BME280;41060;47.510;8.680;2023-04-29T12:13:53;96842.03;;;25.57;30.01
55171;BME280;41060;47.510;8.680;2023-04-29T12:16:21;96830.31;;;25.38;30.50
55171;BME280;41060;47.510;8.680;2023-04-29T12:18:48;96834.25;;;26.03;29.93
55171;BME280;41060;47.510;8.680;2023-04-29T12:21:16;96829.94;;;26.51;29.37
55171;BME280;41060;47.510;8.680;2023-04-29T12:23:44;96826.38;;;26.98;28.52
55171;BME280;41060;47.510;8.680;2023-04-29T12:26:11;96817.19;;;27.22;28.56
55171;BME280;41060;47.510;8.680;2023-04-29T12:28:39;96816.34;;;27.22;28.42
55171;BME280;41060;47.510;8.680;2023-04-29T12:31:08;96819.97;;;27.57;28.68
55171;BME280;41060;47.510;8.680;2023-04-29T12:33:34;96821.50;;;27.65;28.60
55171;BME280;41060;47.510;8.680;2023-04-29T12:36:18;96826.53;;;27.38;28.05
55171;BME280;41060;47.510;8.680;2023-04-29T12:38:49;96827.00;;;27.23;27.86
55171;BME280;41060;47.510;8.680;2023-04-29T12:41:18;96832.22;;;26.35;28.99
55171;BME280;41060;47.510;8.680;2023-04-29T12:43:48;96819.53;;;26.77;29.15
55171;BME280;41060;47.510;8.680;2023-04-29T12:46:15;96826.81;;;26.35;28.94
55171;BME280;41060;47.510;8.680;2023-04-29T12:48:42;96825.91;;;26.23;27.89
55171;BME280;41060;47.510;8.680;2023-04-29T12:51:09;96831.16;;;26.55;28.15
55171;BME280;41060;47.510;8.680;2023-04-29T12:53:37;96820.03;;;26.56;26.90
55171;BME280;41060;47.510;8.680;2023-04-29T12:56:04;96828.88;;;26.81;25.49
55171;BME280;41060;47.510;8.680;2023-04-29T12:58:32;96827.28;;;26.92;24.55
55171;BME280;41060;47.510;8.680;2023-04-29T13:00:59;96823.34;;;26.47;24.47
55171;BME280;41060;47.510;8.680;2023-04-29T13:03:25;96815.97;;;26.17;24.84
55171;BME280;41060;47.510;8.680;2023-04-29T13:05:53;96823.63;;;25.59;25.47
55171;BME280;41060;47.510;8.680;2023-04-29T13:08:19;96829.41;;;25.69;25.26